Portada
METAR-TAF:

METAR-TAF

Aeroports :

Jendouba, Tunísia

latitud: 36-29N, longitud: 008-48E, altitud: 143 m

Observació

L'informe es va fer fa 20 minuts, a les 03:00 UTC
Vent 4 kt del Sud-Oest
Temperatura 4°C
Humitat 93%
Pressió 1023 hPa
Visibilitat: 8000 m
Núvols disperses a una alçada de 2000 ft

METAR: DTTN 250300Z 23004KT 8000 SCT020 04/03 Q1023

Hora: 04:20 (03:20 UTC)


TAF: manca

Observacions i pronòstics meteorològics de més de 4000 aeroports (METAR i TAF).

Les estacions disponibles són els punts grocs i vermells al mapa.

Posi el ratolí al punt desitjat per veure el nom de l'estació.

Feu clic per veure les observacions i els pronòstics meteorològics.

Per canviar el mapa: feu clic els botons verds amb una creu de color negre per apropar; al botó verd amb un guió per allunyar la imatge; o en les fletxes verdes per a mapes adjacents.


METAR-TAF: